Time;durP1;ratioP1;P1;durP2;ratioP2;P2;SDS_P1;SDS_P2;PMS_P1;PMS_P2;Temp;Humidity;BMP_temperature;BMP_pressure;BME280_temperature;BME280_humidity;BME280_pressure;Samples;Min_cycle;Max_cycle;Signal;HPM_P1;HPM_P2
2023/07/20 00:01:36;;;;;;;2.80;0.73;;;13.70;99.90;;;;;;4971375;28;20176;-84
2023/07/20 00:04:02;;;;;;;0.80;0.77;;;13.70;99.90;;;;;;4971557;28;20263;-84
2023/07/20 00:06:27;;;;;;;0.80;0.77;;;13.70;99.90;;;;;;4970595;28;20274;-83
2023/07/20 00:09:13;;;;;;;2.50;0.73;;;13.60;99.90;;;;;;4958022;28;20626;-84
2023/07/20 00:11:52;;;;;;;3.40;0.90;;;13.60;99.90;;;;;;4989047;28;20195;-84
2023/07/20 00:14:18;;;;;;;0.80;0.67;;;13.50;99.90;;;;;;4971301;28;20176;-83
2023/07/20 00:16:55;;;;;;;1.47;0.73;;;13.50;99.90;;;;;;4971392;28;20176;-84
2023/07/20 00:19:23;;;;;;;0.40;0.40;;;13.50;99.90;;;;;;4971181;28;20196;-83
2023/07/20 00:21:49;;;;;;;1.30;1.23;;;13.60;99.90;;;;;;4970975;28;20177;-84
2023/07/20 00:24:20;;;;;;;0.63;0.63;;;13.60;99.90;;;;;;4971486;28;20184;-84
2023/07/20 00:26:46;;;;;;;0.70;0.67;;;13.60;99.90;;;;;;4988707;28;20183;-84
2023/07/20 00:29:15;;;;;;;0.57;0.57;;;13.60;99.90;;;;;;4971476;28;20204;-85
2023/07/20 00:31:44;;;;;;;4.03;0.60;;;13.60;99.90;;;;;;4970323;28;20184;-84
2023/07/20 00:34:15;;;;;;;0.50;0.50;;;13.60;99.90;;;;;;4955375;28;20180;-84
2023/07/20 00:36:48;;;;;;;1.37;0.70;;;13.60;99.90;;;;;;4970866;28;20175;-85
2023/07/20 00:39:17;;;;;;;5.67;1.40;;;13.60;99.90;;;;;;4955929;28;20200;-85
2023/07/20 00:41:43;;;;;;;0.83;0.60;;;13.60;99.90;;;;;;4971305;28;20638;-86
2023/07/20 00:44:18;;;;;;;0.47;0.40;;;13.60;99.90;;;;;;4988354;28;20268;-84
2023/07/20 00:46:51;;;;;;;0.57;0.57;;;13.60;99.90;;;;;;4955208;28;20267;-84
2023/07/20 00:49:21;;;;;;;0.70;0.67;;;13.60;99.90;;;;;;4971396;28;20168;-83
2023/07/20 00:51:48;;;;;;;0.60;0.60;;;13.60;99.90;;;;;;4970923;28;20179;-84
2023/07/20 00:54:15;;;;;;;0.60;0.50;;;13.60;99.90;;;;;;4954890;28;20356;-86
2023/07/20 00:56:45;;;;;;;0.70;0.70;;;13.60;99.90;;;;;;4971019;28;20188;-84
2023/07/20 00:59:14;;;;;;;0.40;0.40;;;13.60;99.90;;;;;;4954533;28;20196;-83
2023/07/20 01:01:46;;;;;;;0.70;0.40;;;13.60;99.90;;;;;;4969993;28;20277;-86
2023/07/20 01:04:23;;;;;;;0.50;0.50;;;13.60;99.90;;;;;;4986997;28;20260;-84
2023/07/20 01:07:17;;;;;;;0.47;0.47;;;13.60;99.90;;;;;;4954975;28;20187;-86
2023/07/20 01:10:02;;;;;;;0.30;0.30;;;13.60;99.90;;;;;;4992112;28;20168;-84
2023/07/20 01:12:55;;;;;;;1.10;1.00;;;13.60;99.90;;;;;;4991734;28;20326;-86
2023/07/20 01:15:21;;;;;;;0.50;0.50;;;13.50;99.90;;;;;;4967511;28;20192;-84
2023/07/20 01:17:55;;;;;;;3.63;0.63;;;13.60;99.90;;;;;;4974208;28;20180;-86
2023/07/20 01:20:23;;;;;;;4.03;0.63;;;13.60;99.90;;;;;;4974317;28;20195;-84
2023/07/20 01:23:55;;;;;;;0.73;0.70;;;13.70;99.90;;;;;;4975606;28;20203;-84
2023/07/20 01:26:37;;;;;;;4.87;0.83;;;13.70;99.90;;;;;;4991617;28;20199;-84
2023/07/20 01:29:03;;;;;;;0.57;0.57;;;13.70;99.90;;;;;;4974343;28;20420;-86
2023/07/20 01:31:33;;;;;;;0.57;0.57;;;13.70;99.90;;;;;;4974365;28;20178;-84
2023/07/20 01:34:02;;;;;;;0.63;0.63;;;13.70;99.90;;;;;;4974158;28;20194;-87
2023/07/20 01:36:32;;;;;;;2.10;0.70;;;13.70;99.90;;;;;;4973293;28;20184;-84
2023/07/20 01:39:10;;;;;;;0.60;0.60;;;13.70;99.90;;;;;;4974216;28;20223;-87
2023/07/20 01:41:39;;;;;;;0.70;0.70;;;13.70;99.90;;;;;;4991431;28;20175;-84
2023/07/20 01:44:10;;;;;;;0.80;0.80;;;13.60;99.90;;;;;;4974113;28;20157;-84
2023/07/20 01:46:42;;;;;;;0.90;0.80;;;13.60;99.90;;;;;;4974000;28;20180;-87
2023/07/20 01:49:16;;;;;;;0.60;0.50;;;13.60;99.90;;;;;;4959289;28;20351;-84
2023/07/20 01:51:53;;;;;;;0.73;0.73;;;13.50;99.90;;;;;;4975072;28;20176;-84
2023/07/20 01:54:24;;;;;;;0.57;0.57;;;13.50;99.90;;;;;;4972565;28;20275;-85
2023/07/20 02:04:01;;;;;;;0.60;0.60;;;13.60;99.90;;;;;;4930362;29;20262;-85
2023/07/20 02:06:31;;;;;;;1.00;0.67;;;13.60;99.90;;;;;;4914463;29;20182;-86
2023/07/20 02:09:09;;;;;;;1.00;0.50;;;13.60;99.90;;;;;;4915689;29;20209;-84
2023/07/20 02:11:39;;;;;;;0.60;0.60;;;13.50;99.90;;;;;;4930377;29;20261;-84
2023/07/20 02:14:11;;;;;;;0.70;0.70;;;13.50;99.90;;;;;;4912289;29;20194;-85
2023/07/20 02:16:37;;;;;;;0.77;0.43;;;13.40;99.90;;;;;;4898570;29;20202;-84
2023/07/20 02:19:06;;;;;;;1.63;1.00;;;13.40;99.90;;;;;;4929916;29;20252;-84
2023/07/20 02:25:34;;;;;;;0.90;0.90;;;13.40;99.90;;;;;;4930263;29;20250;-86
2023/07/20 02:28:07;;;;;;;4.57;0.60;;;13.40;99.90;;;;;;4929244;29;20269;-85
2023/07/20 02:30:40;;;;;;;0.50;0.50;;;13.30;99.90;;;;;;4946639;28;20211;-84
2023/07/20 02:33:13;;;;;;;0.90;0.90;;;13.30;99.90;;;;;;4990067;28;20179;-83
2023/07/20 02:35:58;;;;;;;0.77;0.57;;;13.30;99.90;;;;;;4957212;28;20226;-84
2023/07/20 02:38:27;;;;;;;0.70;0.43;;;13.30;99.90;;;;;;4972733;28;20748;-84
2023/07/20 02:41:01;;;;;;;1.30;0.67;;;13.40;99.90;;;;;;4958623;28;20257;-84
2023/07/20 02:46:25;;;;;;;0.77;0.77;;;13.40;99.90;;;;;;4974314;28;20220;-83
2023/07/20 02:48:54;;;;;;;1.00;0.93;;;13.50;99.90;;;;;;4955867;28;20231;-84
2023/07/20 02:51:22;;;;;;;1.30;1.00;;;13.60;99.90;;;;;;4962501;28;20208;-84
2023/07/20 02:53:51;;;;;;;0.70;0.53;;;13.70;99.90;;;;;;4972388;28;20239;-84
2023/07/20 02:56:29;;;;;;;1.17;1.07;;;13.80;99.90;;;;;;4959728;28;20489;-84
2023/07/20 02:59:03;;;;;;;0.80;0.80;;;13.90;99.90;;;;;;4983196;28;20242;-86
2023/07/20 03:01:42;;;;;;;1.63;0.70;;;13.90;99.90;;;;;;4987689;28;20227;-86
2023/07/20 03:07:54;;;;;;;0.50;0.50;;;13.90;99.90;;;;;;4988953;28;20226;-84
2023/07/20 03:10:26;;;;;;;0.50;0.40;;;13.80;99.90;;;;;;4984733;28;20283;-83
2023/07/20 03:16:37;;;;;;;4.13;1.00;;;13.70;99.90;;;;;;4989604;28;20700;-85
2023/07/20 03:19:06;;;;;;;0.20;0.20;;;13.60;99.90;;;;;;4968425;28;20232;-84
2023/07/20 03:21:42;;;;;;;;;;;;;;;;;;;;;
2023/07/20 03:24:49;;;;;;;6.07;1.00;;;13.50;99.90;;;;;;4968223;28;20255;-83
2023/07/20 03:27:21;;;;;;;2.40;0.83;;;13.60;99.90;;;;;;4968500;28;20224;-84
2023/07/20 03:29:46;;;;;;;0.50;0.50;;;13.60;99.90;;;;;;4983984;28;20276;-84
2023/07/20 03:32:15;;;;;;;2.87;0.53;;;13.60;99.90;;;;;;4968384;28;20264;-86
2023/07/20 03:35:17;;;;;;;0.40;0.40;;;13.60;99.90;;;;;;4952794;28;20181;-84
2023/07/20 03:37:46;;;;;;;0.47;0.33;;;13.60;99.90;;;;;;4968539;28;20263;-86
2023/07/20 03:40:18;;;;;;;3.73;0.73;;;13.60;99.90;;;;;;4968300;28;20236;-84
2023/07/20 03:42:46;;;;;;;0.90;0.60;;;13.70;99.90;;;;;;4968710;28;20168;-84
2023/07/20 03:45:19;;;;;;;0.50;0.50;;;13.70;99.90;;;;;;4951784;28;20669;-87
2023/07/20 03:47:48;;;;;;;2.10;0.90;;;13.80;99.90;;;;;;4968598;28;20251;-84
2023/07/20 03:50:20;;;;;;;0.60;0.60;;;13.80;99.90;;;;;;4952198;28;20185;-85
2023/07/20 03:52:49;;;;;;;0.57;0.57;;;13.80;99.90;;;;;;4967928;28;20172;-84
2023/07/20 03:55:15;;;;;;;0.53;0.53;;;13.90;99.90;;;;;;4955061;28;20430;-84
2023/07/20 03:57:52;;;;;;;0.50;0.50;;;13.90;99.90;;;;;;4987644;28;20794;-83
2023/07/20 04:00:27;;;;;;;0.63;0.60;;;13.90;99.90;;;;;;4971599;28;20270;-85
2023/07/20 04:03:01;;;;;;;0.50;0.50;;;13.90;99.90;;;;;;4955998;28;20188;-84
2023/07/20 04:05:32;;;;;;;1.20;0.87;;;13.90;99.90;;;;;;4971616;28;20248;-85
2023/07/20 04:08:06;;;;;;;0.63;0.47;;;13.90;99.90;;;;;;4939901;28;20277;-86
2023/07/20 04:11:03;;;;;;;0.67;0.67;;;14.00;99.90;;;;;;4971479;28;20184;-86
2023/07/20 04:14:00;;;;;;;1.07;0.93;;;14.10;99.90;;;;;;4970737;28;20218;-86
2023/07/20 04:17:05;;;;;;;1.00;0.90;;;14.20;99.90;;;;;;4964103;28;20432;-87
2023/07/20 04:27:26;;;;;;;0.83;0.77;;;14.40;99.90;;;;;;4989149;28;20180;-86
2023/07/20 04:30:00;;;;;;;0.57;0.57;;;14.40;99.90;;;;;;4986457;28;20306;-86
2023/07/20 04:35:53;;;;;;;1.03;0.73;;;14.50;99.90;;;;;;5004325;28;20215;-85
2023/07/20 04:38:26;;;;;;;1.03;0.70;;;14.60;99.90;;;;;;4979397;28;20246;-85
2023/07/20 04:41:01;;;;;;;1.30;0.70;;;14.60;99.90;;;;;;5006891;28;20298;-87
2023/07/20 04:43:35;;;;;;;0.80;0.80;;;14.70;99.90;;;;;;5009986;28;20249;-86
2023/07/20 04:46:07;;;;;;;0.70;0.70;;;14.80;99.90;;;;;;4977424;28;20407;-85
2023/07/20 04:48:40;;;;;;;0.97;0.83;;;14.90;99.90;;;;;;4993446;28;20277;-85
2023/07/20 04:51:12;;;;;;;2.10;0.73;;;15.00;99.90;;;;;;4976849;28;20218;-84
2023/07/20 04:53:41;;;;;;;0.70;0.70;;;15.10;99.90;;;;;;4995138;28;20176;-85
2023/07/20 04:56:28;;;;;;;0.80;0.80;;;15.10;99.90;;;;;;4978696;28;20269;-86
2023/07/20 04:59:22;;;;;;;5.00;1.00;;;15.20;99.90;;;;;;4959843;28;20653;-86
2023/07/20 05:02:05;;;;;;;0.50;0.50;;;15.30;99.90;;;;;;4965192;28;20306;-85
2023/07/20 05:04:42;;;;;;;1.00;0.50;;;15.30;99.90;;;;;;4964499;28;20307;-86
2023/07/20 05:10:30;;;;;;;0.93;0.50;;;15.40;99.90;;;;;;4993618;28;20523;-86
2023/07/20 05:13:09;;;;;;;0.43;0.43;;;15.50;99.90;;;;;;4930887;28;20291;-86
2023/07/20 05:16:08;;;;;;;0.40;0.40;;;15.60;99.90;;;;;;4938872;28;20243;-86
2023/07/20 05:18:57;;;;;;;4.47;0.67;;;15.70;99.90;;;;;;4955928;28;20232;-86
2023/07/20 05:21:25;;;;;;;1.10;0.57;;;15.90;99.90;;;;;;4950830;28;20686;-86
2023/07/20 05:23:59;;;;;;;2.27;0.90;;;16.10;99.90;;;;;;4953920;28;20219;-85
2023/07/20 05:26:43;;;;;;;3.93;1.00;;;16.30;99.90;;;;;;4958621;28;20231;-85
2023/07/20 05:29:08;;;;;;;0.67;0.67;;;17.50;99.90;;;;;;4952202;28;20257;-87
2023/07/20 05:31:34;;;;;;;0.50;0.50;;;19.70;99.90;;;;;;4941739;28;20697;-85
2023/07/20 05:34:00;;;;;;;1.63;1.10;;;20.60;99.90;;;;;;4925698;28;20212;-87
2023/07/20 05:36:33;;;;;;;0.57;0.57;;;22.20;99.90;;;;;;4950995;28;20198;-85
2023/07/20 05:39:08;;;;;;;1.70;0.80;;;22.80;99.90;;;;;;4969289;28;20666;-85
2023/07/20 05:41:40;;;;;;;2.03;0.70;;;22.50;99.90;;;;;;4952623;28;20627;-87
2023/07/20 05:44:17;;;;;;;0.50;0.50;;;23.40;99.90;;;;;;4952828;28;20828;-87
2023/07/20 05:46:48;;;;;;;1.70;0.90;;;22.70;99.90;;;;;;4952731;28;20785;-86
2023/07/20 05:49:17;;;;;;;0.70;0.60;;;21.80;99.90;;;;;;4952344;28;20251;-86
2023/07/20 05:51:43;;;;;;;2.60;1.03;;;22.10;99.90;;;;;;4957587;28;20228;-86
2023/07/20 05:54:09;;;;;;;0.60;0.60;;;23.00;99.90;;;;;;4991878;28;20205;-85
2023/07/20 05:56:37;;;;;;;0.80;0.80;;;23.10;99.90;;;;;;4990797;28;20227;-85
2023/07/20 05:59:08;;;;;;;0.97;0.90;;;22.90;99.90;;;;;;4963106;28;20795;-85
2023/07/20 06:01:37;;;;;;;1.10;1.10;;;23.40;99.90;;;;;;4975916;28;20262;-85
2023/07/20 06:04:12;;;;;;;1.20;0.88;;;23.30;99.90;;;;;;4975621;28;20211;-88
2023/07/20 06:07:13;;;;;;;1.55;1.20;;;23.40;99.90;;;;;;4994222;28;20215;-87
2023/07/20 06:13:16;;;;;;;;;;;;;;;;;;;;;
2023/07/20 06:15:55;;;;;;;1.38;1.00;;;22.80;99.90;;;;;;4990749;28;20225;-88
2023/07/20 06:18:33;;;;;;;1.25;1.15;;;22.60;99.90;;;;;;4967671;28;20234;-89
2023/07/20 06:21:07;;;;;;;2.40;1.20;;;22.40;99.90;;;;;;5007985;28;20653;-88
2023/07/20 06:26:51;;;;;;;1.60;0.95;;;23.00;99.90;;;;;;5009984;28;20207;-89
2023/07/20 06:29:23;;;;;;;1.55;1.45;;;22.30;99.90;;;;;;4980780;28;20382;-88
2023/07/20 06:32:06;;;;;;;0.95;0.90;;;22.80;99.90;;;;;;4992105;28;20211;-88
2023/07/20 06:34:47;;;;;;;1.58;1.48;;;22.90;99.90;;;;;;4978809;28;20227;-89
2023/07/20 06:37:20;;;;;;;1.25;0.95;;;22.10;99.90;;;;;;4992187;28;20210;-88
2023/07/20 06:40:15;;;;;;;1.00;0.82;;;21.90;99.90;;;;;;4964454;28;20219;-88
2023/07/20 06:43:19;;;;;;;1.63;1.00;;;22.10;99.90;;;;;;4960500;28;20239;-88
2023/07/20 06:46:08;;;;;;;2.05;1.10;;;22.20;99.90;;;;;;4978344;28;20218;-88
2023/07/20 06:48:37;;;;;;;1.98;1.42;;;21.90;99.90;;;;;;4982764;28;20214;-87
2023/07/20 06:51:03;;;;;;;1.90;1.23;;;22.30;99.90;;;;;;5009884;28;20582;-86
2023/07/20 06:53:41;;;;;;;1.63;1.05;;;21.20;99.90;;;;;;4993126;28;20273;-86
2023/07/20 06:56:11;;;;;;;3.47;1.08;;;19.60;99.90;;;;;;4961618;28;20246;-87
2023/07/20 06:58:43;;;;;;;3.35;1.23;;;19.80;99.90;;;;;;5002628;28;20231;-86
2023/07/20 07:01:12;;;;;;;1.98;1.00;;;21.00;99.90;;;;;;4974534;28;20223;-88
2023/07/20 07:03:44;;;;;;;1.35;0.88;;;21.10;99.90;;;;;;4990513;28;20214;-88
2023/07/20 07:06:21;;;;;;;1.92;1.27;;;21.80;99.90;;;;;;4990420;28;20262;-87
2023/07/20 07:09:08;;;;;;;2.75;1.05;;;22.60;99.90;;;;;;4982186;28;20176;-88
2023/07/20 07:11:53;;;;;;;;;;;;;;;;;;;;;
2023/07/20 07:14:34;;;;;;;1.17;0.82;;;22.60;99.90;;;;;;4999820;28;20258;-89
2023/07/20 07:17:01;;;;;;;1.15;0.90;;;22.60;99.90;;;;;;4982153;28;20473;-90
2023/07/20 07:20:13;;;;;;;4.18;1.00;;;23.60;99.90;;;;;;4977234;28;20250;-89
2023/07/20 07:23:00;;;;;;;1.35;0.73;;;22.10;99.90;;;;;;4994378;28;20223;-89
2023/07/20 07:25:31;;;;;;;0.95;0.82;;;21.70;99.90;;;;;;4962438;28;20704;-90
2023/07/20 07:28:05;;;;;;;1.15;0.63;;;21.20;99.90;;;;;;4984713;28;20214;-87
2023/07/20 07:30:37;;;;;;;2.05;0.80;;;20.20;99.90;;;;;;4964490;28;20290;-87
2023/07/20 07:33:23;;;;;;;0.93;0.63;;;19.00;99.90;;;;;;4974278;28;20242;-90
2023/07/20 07:35:53;;;;;;;0.80;0.80;;;18.40;99.90;;;;;;4974861;28;20445;-88
2023/07/20 07:38:32;;;;;;;1.17;1.00;;;19.60;99.90;;;;;;4987253;28;20262;-88
2023/07/20 07:41:09;;;;;;;1.77;0.73;;;21.30;99.90;;;;;;4974074;28;20219;-88
2023/07/20 07:43:56;;;;;;;0.50;0.50;;;20.30;99.90;;;;;;4983626;28;20219;-86
2023/07/20 07:46:21;;;;;;;1.13;0.90;;;19.20;99.90;;;;;;4981564;28;20270;-88
2023/07/20 07:49:05;;;;;;;1.60;1.50;;;19.00;99.90;;;;;;4961969;28;20239;-88
2023/07/20 07:51:38;;;;;;;0.97;0.63;;;20.30;99.90;;;;;;4958426;28;20299;-88
2023/07/20 07:54:07;;;;;;;1.13;0.77;;;22.00;99.90;;;;;;4976619;28;20190;-88
2023/07/20 07:56:47;;;;;;;;;;;;;;;;;;;;;
2023/07/20 07:59:36;;;;;;;2.10;0.93;;;24.90;99.90;;;;;;4978194;28;20716;-89
2023/07/20 08:02:06;;;;;;;2.42;0.63;;;24.90;99.90;;;;;;4946797;28;20264;-87
2023/07/20 08:04:40;;;;;;;0.70;0.70;;;23.30;99.90;;;;;;4962454;28;20215;-88
2023/07/20 08:11:13;;;;;;;1.48;0.85;;;22.70;99.90;;;;;;4988086;28;20192;-88
2023/07/20 08:13:53;;;;;;;1.48;0.80;;;23.20;99.90;;;;;;4962554;28;20215;-87
2023/07/20 08:16:51;;;;;;;1.50;1.15;;;25.00;99.90;;;;;;4970016;28;20234;-89
2023/07/20 08:19:55;;;;;;;0.85;0.80;;;24.30;99.90;;;;;;4971448;28;20707;-87
2023/07/20 08:33:24;;;;;;;0.95;0.73;;;25.30;99.90;;;;;;4927455;29;20213;-91
2023/07/20 08:35:50;;;;;;;4.13;0.63;;;23.40;99.90;;;;;;4913371;29;20711;-88
2023/07/20 08:38:24;;;;;;;0.82;0.75;;;24.20;99.90;;;;;;4929079;29;20265;-87
2023/07/20 08:40:54;;;;;;;0.47;0.47;;;25.20;99.90;;;;;;4968442;28;20195;-87
2023/07/20 08:43:23;;;;;;;2.17;0.75;;;24.20;99.90;;;;;;4970973;28;20183;-86
2023/07/20 08:45:51;;;;;;;1.05;0.75;;;23.80;99.90;;;;;;4988333;28;20183;-87
2023/07/20 08:48:26;;;;;;;2.95;0.70;;;24.70;99.90;;;;;;4970234;28;20180;-88
2023/07/20 08:51:04;;;;;;;1.00;0.63;;;25.20;99.90;;;;;;4971090;28;20242;-88
2023/07/20 08:53:39;;;;;;;0.63;0.63;;;24.50;99.90;;;;;;4970702;28;20506;-86
2023/07/20 08:56:16;;;;;;;2.42;0.63;;;24.70;99.90;;;;;;4955916;28;20232;-88
2023/07/20 08:58:55;;;;;;;1.10;0.85;;;24.00;99.90;;;;;;4987452;28;20268;-88
2023/07/20 09:01:22;;;;;;;0.88;0.60;;;24.80;99.90;;;;;;4971019;28;20176;-87
2023/07/20 09:04:06;;;;;;;0.82;0.80;;;24.70;99.90;;;;;;4971282;28;20219;-89
2023/07/20 09:06:34;;;;;;;0.77;0.70;;;25.10;99.90;;;;;;4971085;28;20160;-87
2023/07/20 09:09:00;;;;;;;1.13;0.70;;;25.50;99.90;;;;;;4939809;28;20188;-87
2023/07/20 09:11:26;;;;;;;1.48;1.00;;;25.70;99.90;;;;;;4971566;28;20264;-86
2023/07/20 09:14:05;;;;;;;1.15;0.88;;;25.10;99.90;;;;;;4953915;28;20275;-83
2023/07/20 09:16:32;;;;;;;1.05;0.70;;;24.60;99.90;;;;;;4970144;28;20614;-85
2023/07/20 09:19:01;;;;;;;0.85;0.60;;;26.10;99.90;;;;;;4970255;28;20216;-86
2023/07/20 09:21:30;;;;;;;3.50;0.80;;;25.90;99.90;;;;;;4970022;28;20192;-85
2023/07/20 09:23:57;;;;;;;1.13;0.73;;;25.60;99.90;;;;;;4970374;28;20184;-85
2023/07/20 09:26:23;;;;;;;1.02;0.75;;;26.90;99.90;;;;;;4970038;28;20271;-84
2023/07/20 09:28:51;;;;;;;4.15;0.85;;;25.40;99.90;;;;;;4971800;28;20279;-84
2023/07/20 09:31:21;;;;;;;0.65;0.60;;;24.50;99.90;;;;;;4970290;28;20169;-84
2023/07/20 09:33:51;;;;;;;1.95;0.82;;;24.30;99.90;;;;;;4972680;28;20184;-84
2023/07/20 09:36:17;;;;;;;0.82;0.68;;;26.60;99.90;;;;;;4990313;28;20172;-86
2023/07/20 09:38:43;;;;;;;2.22;0.77;;;26.40;99.90;;;;;;4973312;28;20184;-85
2023/07/20 09:41:14;;;;;;;2.17;0.80;;;24.20;99.90;;;;;;4972865;28;20188;-84
2023/07/20 09:43:40;;;;;;;1.60;0.70;;;24.10;99.90;;;;;;4973216;28;20175;-84
2023/07/20 09:46:07;;;;;;;0.73;0.73;;;26.40;99.90;;;;;;4971953;28;20207;-86
2023/07/20 09:48:35;;;;;;;3.80;0.70;;;26.60;99.90;;;;;;4955950;28;20531;-85
2023/07/20 09:51:02;;;;;;;1.00;0.70;;;25.70;99.90;;;;;;4990261;28;20184;-84
2023/07/20 09:53:29;;;;;;;2.35;0.82;;;26.60;99.90;;;;;;4956358;28;20272;-84
2023/07/20 09:55:56;;;;;;;2.45;0.80;;;25.20;99.90;;;;;;4975721;28;20241;-83
2023/07/20 09:58:22;;;;;;;0.60;0.60;;;25.90;99.90;;;;;;5006746;28;20868;-85
2023/07/20 10:00:51;;;;;;;0.50;0.50;;;26.80;99.90;;;;;;4975068;28;20276;-84
2023/07/20 10:03:22;;;;;;;1.05;0.80;;;25.90;99.90;;;;;;5009717;28;20255;-86
2023/07/20 10:05:55;;;;;;;0.93;0.50;;;25.60;99.90;;;;;;4991585;28;20171;-87
2023/07/20 10:08:23;;;;;;;2.30;0.70;;;26.70;99.90;;;;;;4990915;28;20179;-86
2023/07/20 10:10:49;;;;;;;1.65;0.80;;;28.00;99.90;;;;;;4992206;28;20183;-85
2023/07/20 10:13:19;;;;;;;2.78;0.70;;;26.90;99.90;;;;;;4992585;28;20199;-85
2023/07/20 10:15:53;;;;;;;1.73;1.05;;;24.80;99.90;;;;;;4992351;28;20223;-85
2023/07/20 10:18:29;;;;;;;1.25;0.70;;;24.00;99.90;;;;;;5008831;28;20218;-85
2023/07/20 10:21:00;;;;;;;0.52;0.52;;;25.30;99.90;;;;;;4992108;28;20175;-85
2023/07/20 10:23:30;;;;;;;0.95;0.50;;;26.60;99.90;;;;;;5009455;28;20640;-85
2023/07/20 10:25:58;;;;;;;0.70;0.70;;;26.00;99.90;;;;;;5008072;28;20183;-85
2023/07/20 10:28:25;;;;;;;1.60;1.00;;;25.60;99.90;;;;;;5009272;28;20266;-86
2023/07/20 10:30:51;;;;;;;0.50;0.50;;;24.30;99.90;;;;;;4992191;28;20625;-86
2023/07/20 10:33:21;;;;;;;0.57;0.57;;;24.20;99.90;;;;;;4975169;28;20179;-87
2023/07/20 10:36:00;;;;;;;3.70;1.02;;;23.80;99.90;;;;;;5008809;28;20170;-86
2023/07/20 10:38:45;;;;;;;1.17;0.50;;;23.70;99.90;;;;;;4991807;28;20171;-85
2023/07/20 10:41:25;;;;;;;0.70;0.70;;;21.90;99.90;;;;;;4992123;28;20206;-86
2023/07/20 10:44:07;;;;;;;0.93;0.90;;;22.30;99.90;;;;;;4992838;28;20250;-87
2023/07/20 10:46:46;;;;;;;0.93;0.70;;;23.70;99.90;;;;;;4991675;28;20167;-86
2023/07/20 10:49:26;;;;;;;0.70;0.70;;;24.00;99.90;;;;;;4991682;28;20177;-86
2023/07/20 10:52:00;;;;;;;1.40;0.80;;;23.30;99.90;;;;;;4992277;28;20685;-86
2023/07/20 10:54:30;;;;;;;1.67;1.20;;;24.10;99.90;;;;;;5008824;28;20174;-87
2023/07/20 10:57:26;;;;;;;3.03;0.90;;;24.30;99.90;;;;;;4988058;28;20290;-86
2023/07/20 11:00:08;;;;;;;2.35;1.20;;;24.20;99.90;;;;;;4972356;28;20657;-89
2023/07/20 11:03:01;;;;;;;1.23;0.80;;;23.50;99.90;;;;;;4959570;28;20230;-86
2023/07/20 11:05:36;;;;;;;0.70;0.70;;;23.60;99.90;;;;;;4990152;28;20186;-86
2023/07/20 11:08:12;;;;;;;2.28;1.00;;;22.40;99.90;;;;;;4989632;28;20725;-87
2023/07/20 11:10:44;;;;;;;3.15;1.00;;;22.80;99.90;;;;;;4972851;28;20250;-87
2023/07/20 11:13:26;;;;;;;3.83;0.70;;;23.80;99.90;;;;;;4957059;28;20176;-87
2023/07/20 11:15:58;;;;;;;1.13;0.98;;;23.20;99.90;;;;;;4972598;28;20254;-88
2023/07/20 11:18:32;;;;;;;0.80;0.80;;;22.80;99.90;;;;;;4971080;28;20184;-87
2023/07/20 11:21:08;;;;;;;;;;;;;;;;;;;;;
2023/07/20 11:23:41;;;;;;;1.25;0.90;;;22.90;99.90;;;;;;4988772;28;20187;-87
2023/07/20 11:26:19;;;;;;;3.22;1.00;;;22.10;99.90;;;;;;4972177;28;20195;-87
2023/07/20 11:28:51;;;;;;;1.23;1.13;;;22.20;99.90;;;;;;4958444;28;20172;-85
2023/07/20 11:31:26;;;;;;;1.23;0.90;;;22.40;99.90;;;;;;4988622;28;20183;-88
2023/07/20 11:33:52;;;;;;;2.25;0.90;;;22.60;99.90;;;;;;4955431;28;20176;-88
2023/07/20 11:36:18;;;;;;;0.85;0.73;;;22.50;99.90;;;;;;4955787;28;20652;-86
2023/07/20 11:39:05;;;;;;;1.98;1.05;;;22.30;99.90;;;;;;4988606;28;20222;-89
2023/07/20 11:41:32;;;;;;;1.90;1.10;;;22.30;99.90;;;;;;4970804;28;20774;-87
2023/07/20 11:44:16;;;;;;;0.80;0.80;;;22.60;99.90;;;;;;4990421;28;20187;-86
2023/07/20 11:46:46;;;;;;;1.25;1.05;;;21.90;99.90;;;;;;4972451;28;20250;-87
2023/07/20 11:49:39;;;;;;;1.42;1.30;;;21.10;99.90;;;;;;4972636;28;20638;-87
2023/07/20 11:52:36;;;;;;;1.55;1.00;;;20.90;99.90;;;;;;4972203;28;20251;-86
2023/07/20 11:55:52;;;;;;;1.92;1.02;;;20.60;99.90;;;;;;4989121;28;20750;-87
2023/07/20 11:58:27;;;;;;;1.83;0.90;;;21.60;99.90;;;;;;4980203;28;20238;-87
2023/07/20 12:00:55;;;;;;;4.38;0.90;;;21.50;99.90;;;;;;5007714;28;20202;-86
2023/07/20 12:03:23;;;;;;;1.13;0.95;;;21.20;99.90;;;;;;4975872;28;20275;-85
2023/07/20 12:06:06;;;;;;;1.27;1.17;;;20.80;99.90;;;;;;4975858;28;20269;-86
2023/07/20 12:08:39;;;;;;;1.00;0.90;;;20.80;99.90;;;;;;5009161;28;20163;-86
2023/07/20 12:11:05;;;;;;;1.70;1.03;;;20.90;99.90;;;;;;5009002;28;20175;-85
2023/07/20 12:13:44;;;;;;;1.77;0.87;;;21.00;99.90;;;;;;4974656;28;20237;-86
2023/07/20 12:16:20;;;;;;;1.30;0.97;;;21.50;99.90;;;;;;5008509;28;20172;-86
2023/07/20 12:18:45;;;;;;;3.30;1.07;;;21.70;99.90;;;;;;4991409;28;20163;-87
2023/07/20 12:21:11;;;;;;;3.78;1.02;;;21.60;99.90;;;;;;4959399;28;20188;-87
2023/07/20 12:23:43;;;;;;;1.85;0.77;;;21.10;99.90;;;;;;5008271;28;20274;-86
2023/07/20 12:26:15;;;;;;;1.13;0.90;;;21.00;99.90;;;;;;4991090;28;20176;-87
2023/07/20 12:28:42;;;;;;;0.63;0.63;;;20.70;99.90;;;;;;4991340;28;20700;-86
2023/07/20 12:31:09;;;;;;;2.33;1.33;;;21.30;99.90;;;;;;5009253;28;20179;-87
2023/07/20 12:33:36;;;;;;;1.23;0.70;;;21.30;99.90;;;;;;5008597;28;20194;-86
2023/07/20 12:36:05;;;;;;;1.00;0.67;;;21.50;99.90;;;;;;4991160;28;20184;-86
2023/07/20 12:38:31;;;;;;;0.77;0.77;;;21.10;99.90;;;;;;4974468;28;20183;-88
2023/07/20 12:41:13;;;;;;;0.50;0.50;;;20.70;99.90;;;;;;4990968;28;20211;-85
2023/07/20 12:44:14;;;;;;;1.30;1.17;;;20.90;99.90;;;;;;4976300;28;20655;-86
2023/07/20 12:46:40;;;;;;;1.00;1.00;;;20.80;99.90;;;;;;4991810;28;20207;-86
2023/07/20 12:49:08;;;;;;;1.58;1.10;;;21.00;99.90;;;;;;4959602;28;20192;-86
2023/07/20 12:51:42;;;;;;;1.30;0.93;;;21.10;99.90;;;;;;4974200;28;20187;-87
2023/07/20 12:54:08;;;;;;;0.70;0.70;;;21.00;99.90;;;;;;4975215;28;20250;-85
2023/07/20 12:56:34;;;;;;;0.60;0.60;;;20.90;99.90;;;;;;4990978;28;20191;-84
2023/07/20 12:59:02;;;;;;;1.37;1.03;;;20.80;99.90;;;;;;5004850;28;20291;-85
2023/07/20 13:01:33;;;;;;;1.20;1.10;;;21.30;99.90;;;;;;4960965;28;20616;-85
2023/07/20 13:03:59;;;;;;;0.93;0.87;;;21.60;99.90;;;;;;4992697;28;20828;-86
2023/07/20 13:06:58;;;;;;;2.30;0.77;;;21.60;99.90;;;;;;4995582;28;20266;-90
2023/07/20 13:17:50;;;;;;;0.77;0.70;;;21.30;99.90;;;;;;4903346;29;20186;-90
2023/07/20 13:21:24;;;;;;;;;;;;;;;;;;;;;
2023/07/20 13:28:26;;;;;;;0.60;0.60;;;21.30;99.90;;;;;;4940837;28;20287;-87
2023/07/20 13:30:56;;;;;;;0.60;0.60;;;21.00;99.90;;;;;;4925518;29;20240;-85
2023/07/20 13:33:29;;;;;;;1.03;0.93;;;21.20;99.90;;;;;;4959995;28;20204;-86
2023/07/20 13:35:55;;;;;;;0.93;0.93;;;21.20;99.90;;;;;;4952534;28;20197;-85
2023/07/20 13:38:24;;;;;;;2.10;1.07;;;21.50;99.90;;;;;;4951681;28;20636;-87
2023/07/20 13:40:52;;;;;;;1.20;1.10;;;21.30;99.90;;;;;;4977863;28;20338;-83
2023/07/20 13:43:18;;;;;;;0.73;0.73;;;20.50;99.90;;;;;;4976037;28;20249;-87
2023/07/20 13:45:45;;;;;;;1.77;1.03;;;20.50;99.90;;;;;;4991602;28;20231;-86
2023/07/20 13:48:49;;;;;;;5.13;0.97;;;20.30;99.90;;;;;;4992255;28;20183;-87
2023/07/20 13:51:20;;;;;;;0.90;0.80;;;20.80;99.90;;;;;;4990128;28;20269;-86
2023/07/20 13:54:06;;;;;;;1.17;0.97;;;21.00;99.90;;;;;;4994126;28;20559;-84
2023/07/20 13:56:34;;;;;;;1.43;0.80;;;21.20;99.90;;;;;;4976878;28;20187;-85
2023/07/20 13:59:00;;;;;;;0.83;0.83;;;21.00;99.90;;;;;;4979682;28;20252;-84
2023/07/20 14:01:32;;;;;;;1.33;1.03;;;21.50;99.90;;;;;;4970907;28;20227;-84
2023/07/20 14:06:56;;;;;;;3.07;1.10;;;21.80;99.90;;;;;;4989160;28;20294;-87
2023/07/20 14:09:43;;;;;;;1.50;1.03;;;20.90;99.90;;;;;;4989198;28;20200;-85
2023/07/20 14:12:29;;;;;;;3.00;1.50;;;20.60;99.90;;;;;;4944917;28;20172;-86
2023/07/20 14:15:21;;;;;;;1.00;0.90;;;21.20;99.90;;;;;;4991297;28;20230;-85
2023/07/20 14:18:14;;;;;;;1.20;1.00;;;20.90;99.90;;;;;;4992315;28;20207;-87
2023/07/20 14:21:03;;;;;;;;;;;;;;;;;;;;;
2023/07/20 14:23:32;;;;;;;3.10;1.10;;;21.10;99.90;;;;;;5007170;28;20712;-85
2023/07/20 14:25:58;;;;;;;1.07;0.90;;;21.10;99.90;;;;;;5006324;28;20302;-86
2023/07/20 14:28:27;;;;;;;1.10;1.00;;;21.20;99.90;;;;;;4990160;28;20230;-85
2023/07/20 14:30:53;;;;;;;2.17;1.00;;;21.40;99.90;;;;;;4961541;28;20251;-83
2023/07/20 14:33:25;;;;;;;3.93;1.33;;;21.40;99.90;;;;;;4979855;28;20172;-85
2023/07/20 14:35:51;;;;;;;1.53;1.43;;;21.40;99.90;;;;;;4976532;28;20180;-85
2023/07/20 14:38:19;;;;;;;1.77;1.27;;;21.30;99.90;;;;;;4991154;28;20875;-85
2023/07/20 14:40:50;;;;;;;2.80;1.13;;;21.10;99.90;;;;;;4960984;28;20286;-85
2023/07/20 14:43:20;;;;;;;3.63;1.30;;;21.30;99.90;;;;;;4971993;28;20230;-85
2023/07/20 14:45:46;;;;;;;1.07;0.93;;;21.60;99.90;;;;;;4974273;28;20688;-84
2023/07/20 14:48:12;;;;;;;1.30;1.20;;;21.80;99.90;;;;;;4990576;28;20255;-83